»·PEaware :: N75232 KSBP-KBFL

N75232 :: KSBP-KBFL

FLIGHT INFORMATION

Flight Status: Arrived
Operator: Privately registered:
United States
More flights under this callsign
Pilot: Daniel B. (28719)
Aircraft: CESSNA 172 SKYHAWK
(C172)
More flights by this aircraft type
Origin: KSBP San Luis Co Regl
United States
Destination: KBFL Meadows
United States
More flights between these airports :: More routes between these airports
Route: +
File this flight plan on PilotEdge
Remarks:
Altitude:
(Current/Filed)
0ft
Speed:
(Current/Filed)
0kts
Departed: 10-Apr-20 05:33 PM
Arrived: 10-Apr-20 06:09 PM
Distance/Time
Traveled:
79nm/0:36
Distance/Time
To Go:
Arrived

Flight Plot

Page will automatically refresh every two minutes.


Map Options




Map Legend


Flown Route
Filed Route
Departure Airport
Arrival Airport
Navaid (VOR, NDB)
Fix

Horizontal Profiles

Position Reports

Time Latitude Longitude Heading Altitude Ground
Speed
10-Apr-20 17:31 35.035717 -120.201053 47 4971ft 123kts
10-Apr-20 17:32 35.052823 -120.161033 38 3857ft 128kts
10-Apr-20 17:34 35.075959 -120.131100 41 3496ft 118kts
10-Apr-20 17:35 35.095841 -120.100042 52 3425ft 112kts
10-Apr-20 17:36 35.108442 -120.066610 51 3821ft 100kts
10-Apr-20 17:37 35.113303 -120.034736 73 4700ft 94kts
10-Apr-20 17:38 35.115627 -120.002868 74 5444ft 98kts
10-Apr-20 17:39 35.118966 -119.963910 74 5441ft 119kts
10-Apr-20 17:40 35.124319 -119.924781 68 5452ft 116kts
10-Apr-20 17:41 35.132387 -119.886973 62 5456ft 114kts
10-Apr-20 17:42 35.142773 -119.850159 60 5454ft 113kts
10-Apr-20 17:43 35.154400 -119.814759 58 5466ft 112kts
10-Apr-20 17:44 35.167231 -119.779999 58 5488ft 111kts
10-Apr-20 17:45 35.180141 -119.745383 57 5498ft 110kts
10-Apr-20 17:46 35.193868 -119.711426 56 5496ft 110kts
10-Apr-20 17:47 35.207284 -119.677094 55 5495ft 111kts
10-Apr-20 17:48 35.224733 -119.643232 53 5029ft 127kts
10-Apr-20 17:49 35.237712 -119.603501 66 4444ft 124kts
10-Apr-20 17:49 35.247217 -119.570775 67 4037ft 122kts
10-Apr-20 17:51 35.261741 -119.525346 61 3452ft 123kts
10-Apr-20 17:52 35.275690 -119.487137 61 3041ft 122kts
10-Apr-20 17:53 35.290228 -119.449442 61 2634ft 122kts
10-Apr-20 17:53 35.302416 -119.417549 60 2248ft 125kts
10-Apr-20 17:55 35.318790 -119.372281 64 1732ft 124kts
10-Apr-20 17:56 35.331843 -119.333884 62 1481ft 115kts
10-Apr-20 17:57 35.345518 -119.298768 59 1518ft 115kts
10-Apr-20 17:58 35.359931 -119.263449 62 1540ft 117kts
10-Apr-20 17:59 35.372237 -119.229673 61 1503ft 87kts
10-Apr-20 17:59 35.380261 -119.208037 59 1519ft 90kts
10-Apr-20 18:00 35.389406 -119.183042 55 1503ft 76kts
10-Apr-20 18:01 35.393702 -119.156631 88 1489ft 80kts
10-Apr-20 18:02 35.393830 -119.129730 82 1518ft 78kts
10-Apr-20 18:03 35.396497 -119.103217 72 1507ft 80kts
10-Apr-20 18:04 35.399180 -119.076408 74 1463ft 82kts
10-Apr-20 18:05 35.408283 -119.053626 48 1083ft 77kts
10-Apr-20 18:06 35.421519 -119.042112 328 766ft 55kts
10-Apr-20 18:07 35.433623 -119.055934 316 507ft 53kts
10-Apr-20 18:08 35.436281 -119.057763 69 492ft 0kts
10-Apr-20 18:09 35.436281 -119.057763 69 492ft 0kts
10-Apr-20 18:10 35.436281 -119.057763 69 492ft 0kts
10-Apr-20 18:11 35.435415 -119.055871 136 493ft 21kts
10-Apr-20 18:12 35.435344 -119.053554 46 499ft 9kts
10-Apr-20 18:13 35.435652 -119.052186 186 503ft 0kts
10-Apr-20 18:14 35.435640 -119.052190 197 503ft 0kts
10-Apr-20 18:15 35.435640 -119.052190 197 503ft 0kts
10-Apr-20 18:16 35.435640 -119.052190 197 503ft 0kts
10-Apr-20 18:17 35.435640 -119.052190 197 503ft 0kts
10-Apr-20 18:18 35.435640 -119.052190 197 503ft 0kts
10-Apr-20 18:19 35.435640 -119.052190 197 503ft 0kts
10-Apr-20 18:20 35.435640 -119.052190 197 503ft 0kts
10-Apr-20 18:21 35.435640 -119.052190 197 503ft 0kts
10-Apr-20 18:22 35.435640 -119.052190 197 503ft 0kts
10-Apr-20 18:23 35.435640 -119.052190 197 503ft 0kts

Navigation Log

Ident Type
Flight plan parsing failed, navigation log unavailable